Time;durP1;ratioP1;P1;durP2;ratioP2;P2;SDS_P1;SDS_P2;PMS_P1;PMS_P2;Temp;Humidity;BMP_temperature;BMP_pressure;BME280_temperature;BME280_humidity;BME280_pressure;Samples;Min_cycle;Max_cycle;Signal;HPM_P1;HPM_P2
2021/07/15 00:00:51;;;;;;;57.83;42.55;;;19.50;99.90;;;;;;5078059;28;20040;-69
2021/07/15 00:03:19;;;;;;;56.95;42.55;;;19.50;99.90;;;;;;5079087;28;20055;-70
2021/07/15 00:05:46;;;;;;;51.08;39.20;;;19.50;99.90;;;;;;5079442;28;20040;-69
2021/07/15 00:08:14;;;;;;;50.78;39.33;;;19.50;99.90;;;;;;5076952;28;20032;-68
2021/07/15 00:10:50;;;;;;;47.13;37.17;;;19.50;99.90;;;;;;5077937;28;20040;-69
2021/07/15 00:13:18;;;;;;;47.58;37.50;;;19.50;99.90;;;;;;5077032;28;20413;-69
2021/07/15 00:15:47;;;;;;;54.63;36.10;;;19.50;99.90;;;;;;5077377;28;20044;-69
2021/07/15 00:18:16;;;;;;;50.58;35.53;;;19.50;99.90;;;;;;5079958;28;20044;-69
2021/07/15 00:20:45;;;;;;;63.15;40.83;;;19.50;99.90;;;;;;5082936;28;20051;-68
2021/07/15 00:23:11;;;;;;;53.42;38.92;;;19.50;99.90;;;;;;5080403;28;21025;-69
2021/07/15 00:25:38;;;;;;;51.35;35.60;;;19.50;99.90;;;;;;5077634;28;20040;-69
2021/07/15 00:28:05;;;;;;;42.58;34.40;;;19.40;99.90;;;;;;5077317;28;20039;-69
2021/07/15 00:30:31;;;;;;;39.25;32.08;;;19.50;99.90;;;;;;5077537;28;20129;-69
2021/07/15 00:32:57;;;;;;;39.05;31.98;;;19.50;99.90;;;;;;5078306;28;20085;-69
2021/07/15 00:35:23;;;;;;;52.85;36.17;;;19.50;99.90;;;;;;5076973;28;20044;-68
2021/07/15 00:37:48;;;;;;;39.05;32.15;;;19.40;99.90;;;;;;5076815;28;20143;-69
2021/07/15 00:40:16;;;;;;;43.60;31.00;;;19.40;99.90;;;;;;5077785;28;20040;-69
2021/07/15 00:42:42;;;;;;;45.92;33.80;;;19.40;99.90;;;;;;5077012;28;20485;-69
2021/07/15 00:45:09;;;;;;;41.35;31.73;;;19.40;99.90;;;;;;5079232;28;20090;-69
2021/07/15 00:47:35;;;;;;;42.05;32.50;;;19.40;99.90;;;;;;5078336;28;20064;-69
2021/07/15 00:50:03;;;;;;;41.35;30.83;;;19.40;99.90;;;;;;5077726;28;20913;-68
2021/07/15 00:52:29;;;;;;;39.30;31.27;;;19.40;99.90;;;;;;5060866;28;20032;-69
2021/07/15 00:54:55;;;;;;;41.97;29.90;;;19.40;99.90;;;;;;5077809;28;20055;-69
2021/07/15 00:57:21;;;;;;;43.85;28.45;;;19.40;99.90;;;;;;5077888;28;20047;-69
2021/07/15 00:59:48;;;;;;;43.80;28.98;;;19.40;99.90;;;;;;5076477;28;20047;-68
2021/07/15 01:02:14;;;;;;;42.50;28.08;;;19.40;99.90;;;;;;5075752;28;20045;-69
2021/07/15 01:04:40;;;;;;;44.72;28.90;;;19.40;99.90;;;;;;5075589;28;20051;-68
2021/07/15 01:07:06;;;;;;;41.55;28.70;;;19.40;99.90;;;;;;5078812;28;20036;-68
2021/07/15 01:09:32;;;;;;;41.80;28.17;;;19.40;99.90;;;;;;5076686;28;20075;-68
2021/07/15 01:12:32;;;;;;;40.88;28.63;;;19.40;99.90;;;;;;5076217;28;20587;-69
2021/07/15 01:15:32;;;;;;;34.60;26.92;;;19.40;99.90;;;;;;5076528;28;20043;-69
2021/07/15 01:18:28;;;;;;;37.42;27.67;;;19.40;99.90;;;;;;5063790;28;20059;-69
2021/07/15 01:21:24;;;;;;;43.40;28.55;;;19.40;99.90;;;;;;5083847;28;20040;-68
2021/07/15 01:24:25;;;;;;;34.03;25.60;;;19.30;99.90;;;;;;5080180;28;20036;-69
2021/07/15 01:27:21;;;;;;;35.88;25.30;;;19.30;99.90;;;;;;5036650;28;20108;-68
2021/07/15 01:29:58;;;;;;;28.23;22.67;;;19.30;99.90;;;;;;5077479;28;20040;-67
2021/07/15 01:32:29;;;;;;;30.17;24.10;;;19.30;99.90;;;;;;5079543;28;20637;-68
2021/07/15 01:35:03;;;;;;;31.27;23.70;;;19.40;99.90;;;;;;5079947;28;20040;-68
2021/07/15 01:37:31;;;;;;;35.47;25.42;;;19.30;99.90;;;;;;5078138;28;20036;-69
2021/07/15 01:39:59;;;;;;;35.05;25.20;;;19.30;99.90;;;;;;5077838;28;20044;-68
2021/07/15 01:42:26;;;;;;;45.05;27.25;;;19.30;99.90;;;;;;5078740;28;20126;-68
2021/07/15 01:44:54;;;;;;;32.38;25.75;;;19.30;99.90;;;;;;5082550;28;20036;-68
2021/07/15 01:47:20;;;;;;;33.45;25.65;;;19.30;99.90;;;;;;5062019;28;20123;-69
2021/07/15 01:49:47;;;;;;;37.83;26.02;;;19.30;99.90;;;;;;5077021;28;20118;-69
2021/07/15 01:52:15;;;;;;;36.53;26.48;;;19.30;99.90;;;;;;5082823;28;20055;-68
2021/07/15 01:54:42;;;;;;;36.78;25.38;;;19.30;99.90;;;;;;5079360;28;20273;-68
2021/07/15 01:57:10;;;;;;;35.17;26.35;;;19.30;99.90;;;;;;5078338;28;20444;-68
2021/07/15 01:59:36;;;;;;;39.72;25.95;;;19.30;99.90;;;;;;5075641;28;20198;-68
2021/07/15 02:02:04;;;;;;;33.35;25.75;;;19.40;99.90;;;;;;5080423;28;20042;-68
2021/07/15 02:04:31;;;;;;;42.03;26.40;;;19.30;99.90;;;;;;5079120;28;20060;-69
2021/07/15 02:07:01;;;;;;;41.38;27.60;;;19.30;99.90;;;;;;5080179;28;20047;-69
2021/07/15 02:09:28;;;;;;;44.00;29.35;;;19.30;99.90;;;;;;5075707;28;20032;-68
2021/07/15 02:11:55;;;;;;;34.40;24.92;;;19.30;99.90;;;;;;5079507;28;20040;-69
2021/07/15 02:14:23;;;;;;;37.90;26.85;;;19.30;99.90;;;;;;5080681;28;20040;-69
2021/07/15 02:16:52;;;;;;;37.17;25.77;;;19.40;99.90;;;;;;5081982;28;20035;-69
2021/07/15 02:19:34;;;;;;;38.00;26.73;;;19.30;99.90;;;;;;5077380;28;20032;-69
2021/07/15 02:22:11;;;;;;;37.72;26.02;;;19.30;99.90;;;;;;5078657;28;20055;-69
2021/07/15 02:24:39;;;;;;;37.50;27.00;;;19.30;99.90;;;;;;5078251;28;20493;-69
2021/07/15 02:27:06;;;;;;;36.30;27.17;;;19.30;99.90;;;;;;5075286;28;20031;-69
2021/07/15 02:29:33;;;;;;;40.80;26.60;;;19.30;99.90;;;;;;5071778;28;20448;-69
2021/07/15 02:32:08;;;;;;;36.53;26.48;;;19.30;99.90;;;;;;5079415;28;20131;-69
2021/07/15 02:34:54;;;;;;;40.63;26.07;;;19.30;99.90;;;;;;5082869;28;20503;-69
2021/07/15 02:37:22;;;;;;;;;;;19.30;99.90;;;;;;5083196;28;20493;-69
2021/07/15 02:39:51;;;;;;;38.58;26.92;;;19.30;99.90;;;;;;5077846;28;19920;-69
2021/07/15 02:42:17;;;;;;;41.63;27.02;;;19.30;99.90;;;;;;5079240;28;20063;-69
2021/07/15 02:44:43;;;;;;;41.60;28.55;;;19.30;99.90;;;;;;5077071;28;20933;-69
2021/07/15 02:47:10;;;;;;;40.72;27.65;;;19.30;99.90;;;;;;5082430;28;20047;-69
2021/07/15 02:49:41;;;;;;;46.47;28.55;;;19.30;99.90;;;;;;5075227;28;20121;-69
2021/07/15 02:52:08;;;;;;;35.60;25.67;;;19.30;99.90;;;;;;5081141;28;20152;-69
2021/07/15 02:54:35;;;;;;;39.80;26.90;;;19.30;99.90;;;;;;5064906;28;20053;-69
2021/07/15 02:57:23;;;;;;;40.38;26.73;;;19.30;99.90;;;;;;5081048;28;20116;-69
2021/07/15 03:00:00;;;;;;;51.75;27.30;;;19.30;99.90;;;;;;5080210;28;20044;-69
2021/07/15 03:02:31;;;;;;;46.63;26.45;;;19.30;99.90;;;;;;5084849;28;20073;-69
2021/07/15 03:05:04;;;;;;;49.28;26.38;;;19.30;99.90;;;;;;5085742;28;20063;-69
2021/07/15 03:07:35;;;;;;;49.75;27.17;;;19.30;99.90;;;;;;5084261;28;20401;-69
2021/07/15 03:10:02;;;;;;;41.78;26.02;;;19.20;99.90;;;;;;5079599;28;20046;-69
2021/07/15 03:12:33;;;;;;;46.13;25.30;;;19.20;99.90;;;;;;5083831;28;20051;-69
2021/07/15 03:15:00;;;;;;;41.55;23.85;;;19.20;99.90;;;;;;5078759;28;20758;-68
2021/07/15 03:17:36;;;;;;;57.78;26.85;;;19.20;99.90;;;;;;5085614;28;20040;-69
2021/07/15 03:20:10;;;;;;;46.88;24.38;;;19.20;99.90;;;;;;5088514;28;20492;-68
2021/07/15 03:22:37;;;;;;;50.65;24.75;;;19.20;99.90;;;;;;5085684;28;20079;-69
2021/07/15 03:25:06;;;;;;;45.17;24.67;;;19.10;99.90;;;;;;5083478;28;20084;-68
2021/07/15 03:27:34;;;;;;;40.70;23.40;;;19.10;99.90;;;;;;5083487;28;20047;-69
2021/07/15 03:30:05;;;;;;;44.13;24.00;;;19.10;99.90;;;;;;5079590;28;20040;-69
2021/07/15 03:32:31;;;;;;;44.03;23.35;;;19.10;99.90;;;;;;5066485;28;20118;-69
2021/07/15 03:34:57;;;;;;;43.20;22.42;;;19.10;99.90;;;;;;5083262;28;20428;-69
2021/07/15 03:37:24;;;;;;;44.80;22.00;;;19.10;99.90;;;;;;5082253;28;20040;-69
2021/07/15 03:39:51;;;;;;;40.80;22.60;;;19.10;99.90;;;;;;5080758;28;20385;-68
2021/07/15 03:42:19;;;;;;;37.47;22.25;;;19.10;99.90;;;;;;5082876;28;20044;-68
2021/07/15 03:44:46;;;;;;;47.47;22.00;;;19.10;99.90;;;;;;5084705;28;20088;-68
2021/07/15 03:47:13;;;;;;;38.65;22.63;;;19.00;99.90;;;;;;5096235;28;20679;-68
2021/07/15 03:49:43;;;;;;;46.95;22.17;;;19.10;99.90;;;;;;5079950;28;20093;-68
2021/07/15 03:52:14;;;;;;;36.15;20.80;;;19.10;99.90;;;;;;5084038;28;20044;-68
2021/07/15 03:54:45;;;;;;;41.65;20.40;;;19.00;99.90;;;;;;5082653;28;20051;-68
2021/07/15 03:57:14;;;;;;;41.17;21.15;;;19.10;99.90;;;;;;5081186;28;21799;-68
2021/07/15 03:59:50;;;;;;;37.30;20.20;;;19.00;99.90;;;;;;5079524;28;20050;-68
2021/07/15 04:02:19;;;;;;;38.25;21.70;;;19.00;99.90;;;;;;5080406;28;20490;-68
2021/07/15 04:04:49;;;;;;;40.13;20.95;;;19.00;99.90;;;;;;5081258;28;20039;-67
2021/07/15 04:07:18;;;;;;;41.40;20.92;;;19.00;99.90;;;;;;5083373;28;20076;-67
2021/07/15 04:09:45;;;;;;;38.75;20.17;;;19.00;99.90;;;;;;5089267;28;20061;-67
2021/07/15 04:12:12;;;;;;;35.90;20.70;;;19.00;99.90;;;;;;5082279;28;20047;-67
2021/07/15 04:15:13;;;;;;;40.33;20.45;;;19.00;99.90;;;;;;5084459;28;20229;-67
2021/07/15 04:17:48;;;;;;;34.92;20.52;;;19.10;99.90;;;;;;5082052;28;20054;-67
2021/07/15 04:20:17;;;;;;;38.25;20.73;;;19.00;99.90;;;;;;5086272;28;20062;-67
2021/07/15 04:22:45;;;;;;;42.78;20.73;;;19.00;99.90;;;;;;5082924;28;20048;-67
2021/07/15 04:25:14;;;;;;;37.05;20.83;;;19.00;99.90;;;;;;5085195;28;20580;-68
2021/07/15 04:27:42;;;;;;;42.35;20.80;;;19.00;99.90;;;;;;5080906;28;20058;-69
2021/07/15 04:30:09;;;;;;;35.03;19.17;;;19.00;99.90;;;;;;5079255;28;20474;-67
2021/07/15 04:32:47;;;;;;;41.08;20.52;;;18.90;99.90;;;;;;5082929;28;20139;-67
2021/07/15 04:35:14;;;;;;;32.63;19.23;;;18.90;99.90;;;;;;5080959;28;20128;-66
2021/07/15 04:37:41;;;;;;;43.55;20.63;;;19.00;99.90;;;;;;5081747;28;20044;-68
2021/07/15 04:40:10;;;;;;;32.28;19.05;;;19.00;99.90;;;;;;5078658;28;20036;-68
2021/07/15 04:42:40;;;;;;;34.05;19.55;;;19.00;99.90;;;;;;5084471;28;20046;-66
2021/07/15 04:45:11;;;;;;;37.30;18.67;;;18.90;99.90;;;;;;5079719;28;20402;-68
2021/07/15 04:47:43;;;;;;;37.55;19.42;;;18.90;99.90;;;;;;5079044;28;20598;-67
2021/07/15 04:50:15;;;;;;;40.15;16.35;;;18.90;99.90;;;;;;5079852;28;20086;-66
2021/07/15 04:52:42;;;;;;;34.63;20.60;;;18.80;99.90;;;;;;5081567;28;20386;-68
2021/07/15 04:55:09;;;;;;;42.95;21.10;;;18.80;99.90;;;;;;5083942;28;20046;-68
2021/07/15 04:57:36;;;;;;;42.28;20.92;;;18.80;99.90;;;;;;5081123;28;20135;-67
2021/07/15 05:00:10;;;;;;;35.22;20.67;;;18.80;99.90;;;;;;5076555;28;20040;-66
2021/07/15 05:02:36;;;;;;;31.60;20.90;;;18.80;99.90;;;;;;5070745;28;20040;-69
2021/07/15 05:05:06;;;;;;;38.83;19.48;;;18.80;99.90;;;;;;5070965;28;20040;-68
2021/07/15 05:07:34;;;;;;;38.50;19.95;;;18.90;99.90;;;;;;5072718;28;20047;-67
2021/07/15 05:09:59;;;;;;;34.80;20.55;;;18.80;99.90;;;;;;5068473;28;20040;-67
2021/07/15 05:12:26;;;;;;;38.85;20.52;;;18.90;99.90;;;;;;5071401;28;20039;-68
2021/07/15 05:14:54;;;;;;;36.55;20.17;;;18.90;99.90;;;;;;5075356;28;20157;-68
2021/07/15 05:17:20;;;;;;;37.28;20.17;;;18.80;99.90;;;;;;5076713;28;20040;-67
2021/07/15 05:19:45;;;;;;;37.60;19.02;;;18.80;99.90;;;;;;5078301;28;20054;-67
2021/07/15 05:22:11;;;;;;;35.53;18.52;;;18.90;99.90;;;;;;5088866;28;20529;-68
2021/07/15 05:24:37;;;;;;;31.17;18.63;;;18.90;99.90;;;;;;5076252;28;20122;-68
2021/07/15 05:27:04;;;;;;;32.03;17.40;;;18.90;99.90;;;;;;5075501;28;20393;-68
2021/07/15 05:29:30;;;;;;;27.52;16.88;;;18.90;99.90;;;;;;5068659;28;20036;-68
2021/07/15 05:31:56;;;;;;;33.35;17.45;;;18.90;99.90;;;;;;5070071;28;20059;-68
2021/07/15 05:34:22;;;;;;;35.42;19.15;;;19.00;99.90;;;;;;5070995;28;20040;-68
2021/07/15 05:36:48;;;;;;;38.72;19.15;;;18.90;99.90;;;;;;5073012;28;20043;-68
2021/07/15 05:39:14;;;;;;;33.03;18.50;;;18.90;99.90;;;;;;5066736;28;20047;-68
2021/07/15 05:41:40;;;;;;;37.92;19.45;;;18.90;99.90;;;;;;5073694;28;20051;-68
2021/07/15 05:44:06;;;;;;;36.88;19.85;;;18.90;99.90;;;;;;5072791;28;20044;-68
2021/07/15 05:46:31;;;;;;;49.90;20.95;;;18.90;99.90;;;;;;5075484;28;20117;-68
2021/07/15 05:48:57;;;;;;;39.15;19.75;;;18.90;99.90;;;;;;5070521;28;20040;-68
2021/07/15 05:51:23;;;;;;;37.13;21.65;;;18.90;99.90;;;;;;5071354;28;20044;-68
2021/07/15 05:53:49;;;;;;;35.17;17.15;;;18.90;99.90;;;;;;5073733;28;20036;-67
2021/07/15 05:56:15;;;;;;;37.03;18.13;;;18.90;99.90;;;;;;5076439;28;20039;-67
2021/07/15 05:58:41;;;;;;;35.88;18.20;;;18.90;99.90;;;;;;5072657;28;20036;-67
2021/07/15 06:01:06;;;;;;;38.45;19.20;;;18.90;99.90;;;;;;5077708;28;20044;-67
2021/07/15 06:03:32;;;;;;;35.75;17.48;;;18.90;99.90;;;;;;5075127;28;20801;-67
2021/07/15 06:05:58;;;;;;;40.42;18.65;;;18.90;99.90;;;;;;5074685;28;20753;-67
2021/07/15 06:08:24;;;;;;;40.08;17.08;;;18.90;99.90;;;;;;5072692;28;20055;-68
2021/07/15 06:10:49;;;;;;;35.10;16.38;;;18.90;99.90;;;;;;5074388;28;20055;-67
2021/07/15 06:13:15;;;;;;;33.20;17.90;;;18.90;99.90;;;;;;5073924;28;20040;-67
2021/07/15 06:15:41;;;;;;;35.47;17.45;;;18.90;99.90;;;;;;5072099;28;20047;-68
2021/07/15 06:18:08;;;;;;;39.72;17.75;;;18.90;99.90;;;;;;5072745;28;20039;-68
2021/07/15 06:20:34;;;;;;;36.42;17.00;;;18.90;99.90;;;;;;5082627;28;20036;-68
2021/07/15 06:23:00;;;;;;;33.40;18.67;;;18.90;99.90;;;;;;5073394;28;20532;-67
2021/07/15 06:25:26;;;;;;;35.70;17.85;;;18.80;99.90;;;;;;5076352;28;20445;-67
2021/07/15 06:27:53;;;;;;;35.45;16.63;;;18.90;99.90;;;;;;5072651;28;20050;-67
2021/07/15 06:30:18;;;;;;;32.58;16.80;;;18.80;99.90;;;;;;5079182;28;20036;-67
2021/07/15 06:32:45;;;;;;;35.70;18.38;;;18.90;99.90;;;;;;5080675;28;20040;-67
2021/07/15 06:35:11;;;;;;;37.10;16.58;;;18.80;99.90;;;;;;5079263;28;20071;-67
2021/07/15 06:37:40;;;;;;;41.03;17.45;;;18.80;99.90;;;;;;5076106;28;20071;-67
2021/07/15 06:40:09;;;;;;;37.78;16.73;;;18.80;99.90;;;;;;5075323;28;20036;-68
2021/07/15 06:42:35;;;;;;;37.53;17.67;;;18.90;99.90;;;;;;5081223;28;20043;-68
2021/07/15 06:45:03;;;;;;;36.30;18.13;;;18.80;99.90;;;;;;5077968;28;20043;-68
2021/07/15 06:47:29;;;;;;;34.58;18.00;;;18.80;99.90;;;;;;5078265;28;20519;-68
2021/07/15 06:49:56;;;;;;;40.70;18.67;;;18.80;99.90;;;;;;5077596;28;20457;-69
2021/07/15 06:52:24;;;;;;;34.90;17.92;;;18.80;99.90;;;;;;5078664;28;20068;-68
2021/07/15 06:54:53;;;;;;;40.55;17.80;;;18.80;99.90;;;;;;5078899;28;20032;-69
2021/07/15 06:57:19;;;;;;;36.45;17.55;;;18.80;99.90;;;;;;5079695;28;20129;-68
2021/07/15 06:59:45;;;;;;;36.67;15.40;;;18.90;99.90;;;;;;5074176;28;20078;-68
2021/07/15 07:02:17;;;;;;;32.70;15.95;;;18.80;99.90;;;;;;5071548;28;20390;-68
2021/07/15 07:04:43;;;;;;;32.22;15.60;;;18.80;99.90;;;;;;5072266;28;20062;-69
2021/07/15 07:07:09;;;;;;;31.48;15.05;;;18.80;99.90;;;;;;5080520;28;20469;-69
2021/07/15 07:09:34;;;;;;;32.80;16.38;;;18.80;99.90;;;;;;5078351;28;20093;-69
2021/07/15 07:12:00;;;;;;;35.47;15.52;;;18.80;99.90;;;;;;5079016;28;20127;-69
2021/07/15 07:14:26;;;;;;;31.08;14.43;;;18.90;99.90;;;;;;5073076;28;20503;-69
2021/07/15 07:16:52;;;;;;;27.85;14.07;;;18.80;99.90;;;;;;5075180;28;21548;-69
2021/07/15 07:19:17;;;;;;;28.73;13.57;;;18.80;99.90;;;;;;5072720;28;20071;-69
2021/07/15 07:21:49;;;;;;;28.25;13.35;;;18.90;99.90;;;;;;5071568;28;20165;-69
2021/07/15 07:24:15;;;;;;;30.13;13.85;;;18.80;99.90;;;;;;5071869;28;20070;-69
2021/07/15 07:26:41;;;;;;;20.85;11.63;;;18.80;99.90;;;;;;5074366;28;20484;-69
2021/07/15 07:29:07;;;;;;;27.02;11.68;;;18.90;99.90;;;;;;5064367;28;20040;-69
2021/07/15 07:31:33;;;;;;;32.42;11.82;;;18.80;99.90;;;;;;5070199;28;20547;-67
2021/07/15 07:33:59;;;;;;;25.63;11.27;;;18.80;99.90;;;;;;5072116;28;20070;-68
2021/07/15 07:36:25;;;;;;;23.70;12.27;;;18.80;99.90;;;;;;5077199;28;20842;-67
2021/07/15 07:38:51;;;;;;;33.67;13.30;;;18.90;99.90;;;;;;5076656;28;20371;-67
2021/07/15 07:41:17;;;;;;;26.73;11.10;;;18.80;99.90;;;;;;5077303;28;20072;-68
2021/07/15 07:43:43;;;;;;;19.73;10.55;;;18.80;99.90;;;;;;5080412;28;20046;-67
2021/07/15 07:46:09;;;;;;;23.85;10.48;;;18.80;99.90;;;;;;5078717;28;20449;-67
2021/07/15 07:48:40;;;;;;;25.67;11.63;;;18.70;99.90;;;;;;5077019;28;20152;-68
2021/07/15 07:51:06;;;;;;;22.10;10.80;;;18.80;99.90;;;;;;5080654;28;20104;-70
2021/07/15 07:53:32;;;;;;;20.77;10.40;;;18.70;99.90;;;;;;5070764;28;20043;-68
2021/07/15 07:55:58;;;;;;;26.05;11.40;;;18.70;99.90;;;;;;5071366;28;20036;-68
2021/07/15 07:58:24;;;;;;;25.83;10.80;;;18.70;99.90;;;;;;5066816;28;20044;-67
2021/07/15 08:00:50;;;;;;;21.85;10.60;;;18.70;99.90;;;;;;5071453;28;20040;-68
2021/07/15 08:03:18;;;;;;;19.70;9.93;;;18.70;99.90;;;;;;5071036;28;20059;-67
2021/07/15 08:05:45;;;;;;;20.65;10.13;;;18.70;99.90;;;;;;5055580;28;20036;-68
2021/07/15 08:08:11;;;;;;;21.70;10.98;;;18.70;99.90;;;;;;5069604;28;20421;-67
2021/07/15 08:10:38;;;;;;;22.88;10.63;;;18.70;99.90;;;;;;5071879;28;21423;-68
2021/07/15 08:13:04;;;;;;;21.75;10.32;;;18.70;99.90;;;;;;5072127;28;20111;-68
2021/07/15 08:15:30;;;;;;;23.08;9.80;;;18.70;99.90;;;;;;5076613;28;20046;-68
2021/07/15 08:17:56;;;;;;;17.90;8.68;;;18.70;99.90;;;;;;5055510;28;20466;-68
2021/07/15 08:20:23;;;;;;;19.10;10.77;;;18.70;99.90;;;;;;5086181;28;20103;-68
2021/07/15 08:22:49;;;;;;;22.55;10.90;;;18.70;99.90;;;;;;5072422;28;20059;-68
2021/07/15 08:25:19;;;;;;;22.60;10.00;;;18.70;99.90;;;;;;5070778;28;20027;-68
2021/07/15 08:27:45;;;;;;;13.23;7.60;;;18.70;99.90;;;;;;5075293;28;20047;-68
2021/07/15 08:30:12;;;;;;;15.50;7.45;;;18.70;99.90;;;;;;5069887;28;20134;-69
2021/07/15 08:32:39;;;;;;;18.77;6.93;;;18.60;99.90;;;;;;5069409;28;20055;-69
2021/07/15 08:35:06;;;;;;;22.17;9.13;;;18.60;99.90;;;;;;5074738;28;20039;-68
2021/07/15 08:37:33;;;;;;;18.98;9.27;;;18.50;99.90;;;;;;5075637;28;20073;-68
2021/07/15 08:39:59;;;;;;;19.00;11.13;;;18.50;99.90;;;;;;5069840;28;20431;-68
2021/07/15 08:42:26;;;;;;;22.67;12.32;;;18.50;99.90;;;;;;5072503;28;20485;-69
2021/07/15 08:44:54;;;;;;;26.60;11.27;;;18.50;99.90;;;;;;5070167;28;20140;-69
2021/07/15 08:47:20;;;;;;;21.02;11.88;;;18.50;99.90;;;;;;5073085;28;20083;-69
2021/07/15 08:49:46;;;;;;;29.45;12.50;;;18.50;99.90;;;;;;5070294;28;20125;-69
2021/07/15 08:52:15;;;;;;;23.02;11.98;;;18.50;99.90;;;;;;5072844;28;20158;-69
2021/07/15 08:54:54;;;;;;;24.40;12.93;;;18.60;99.90;;;;;;5070581;28;20048;-69
2021/07/15 08:57:21;;;;;;;26.15;13.07;;;18.60;99.90;;;;;;5068542;28;20074;-68
2021/07/15 08:59:47;;;;;;;29.98;12.48;;;18.60;99.90;;;;;;5065714;28;20052;-68
2021/07/15 09:02:18;;;;;;;30.25;15.27;;;18.60;99.90;;;;;;5066464;28;20083;-68
2021/07/15 09:04:45;;;;;;;31.02;13.63;;;18.50;99.90;;;;;;5069854;28;20040;-68
2021/07/15 09:07:11;;;;;;;24.17;13.27;;;18.60;99.90;;;;;;5049782;28;20120;-68
2021/07/15 09:09:38;;;;;;;33.78;15.48;;;18.60;99.90;;;;;;5066619;28;20032;-68
2021/07/15 09:12:04;;;;;;;31.55;14.48;;;18.60;99.90;;;;;;5069102;28;20048;-68
2021/07/15 09:14:43;;;;;;;30.30;14.07;;;18.60;99.90;;;;;;5070467;28;20044;-68
2021/07/15 09:17:08;;;;;;;34.45;15.73;;;18.70;99.90;;;;;;5068034;28;20036;-68
2021/07/15 09:19:41;;;;;;;25.77;12.52;;;18.70;99.90;;;;;;5070808;28;20037;-69
2021/07/15 09:22:12;;;;;;;25.30;14.20;;;18.60;99.90;;;;;;5068369;28;20051;-68
2021/07/15 09:24:44;;;;;;;22.40;11.75;;;18.70;99.90;;;;;;5073341;28;20118;-68
2021/07/15 09:27:10;;;;;;;18.33;10.43;;;18.70;99.90;;;;;;5069371;28;21903;-69
2021/07/15 09:29:36;;;;;;;19.70;10.82;;;18.80;99.90;;;;;;5067189;28;20044;-68
2021/07/15 09:32:03;;;;;;;18.50;10.02;;;18.90;99.90;;;;;;5066095;28;20044;-69
2021/07/15 09:34:31;;;;;;;18.45;10.73;;;18.90;99.90;;;;;;5070394;28;20043;-69
2021/07/15 09:36:57;;;;;;;21.40;9.90;;;18.90;99.90;;;;;;5068754;28;20036;-69
2021/07/15 09:39:27;;;;;;;17.23;9.38;;;18.90;99.90;;;;;;5065389;28;20288;-68
2021/07/15 09:42:05;;;;;;;20.25;10.43;;;18.90;99.90;;;;;;5070356;28;20474;-69
2021/07/15 09:44:35;;;;;;;13.48;8.45;;;19.00;99.90;;;;;;5067982;28;20035;-68
2021/07/15 09:47:05;;;;;;;17.10;9.25;;;19.00;99.90;;;;;;5054309;28;20035;-68
2021/07/15 09:49:35;;;;;;;14.60;8.57;;;19.00;99.90;;;;;;5064139;28;20129;-69
2021/07/15 09:52:02;;;;;;;15.82;8.43;;;19.00;99.90;;;;;;5063647;28;20738;-69
2021/07/15 09:54:29;;;;;;;12.95;8.80;;;19.00;99.90;;;;;;5061640;28;20112;-69
2021/07/15 09:56:55;;;;;;;14.57;8.05;;;19.00;99.90;;;;;;5062711;28;20052;-69
2021/07/15 09:59:21;;;;;;;12.85;8.15;;;19.00;99.90;;;;;;5045714;28;20039;-69
2021/07/15 10:01:49;;;;;;;14.57;8.20;;;19.00;99.90;;;;;;5067134;28;21585;-70
2021/07/15 10:04:33;;;;;;;14.98;8.60;;;18.90;99.90;;;;;;5065349;28;20047;-70
2021/07/15 10:07:02;;;;;;;17.17;7.35;;;18.90;99.90;;;;;;5050305;28;20485;-69
2021/07/15 10:09:30;;;;;;;8.60;6.03;;;18.90;99.90;;;;;;5063464;28;20032;-70
2021/07/15 10:11:56;;;;;;;13.52;6.30;;;18.80;99.90;;;;;;5063899;28;20052;-69
2021/07/15 10:14:32;;;;;;;13.77;6.78;;;18.90;99.90;;;;;;5064637;28;20167;-69
2021/07/15 10:16:58;;;;;;;12.18;6.53;;;18.80;99.90;;;;;;5068366;28;20043;-69
2021/07/15 10:19:25;;;;;;;11.65;7.38;;;18.80;99.90;;;;;;5070225;28;20036;-69
2021/07/15 10:22:10;;;;;;;15.05;7.75;;;18.80;99.90;;;;;;5069651;28;20123;-69
2021/07/15 10:24:38;;;;;;;17.75;9.35;;;18.80;99.90;;;;;;5069073;28;20079;-68
2021/07/15 10:27:09;;;;;;;15.20;8.55;;;18.80;99.90;;;;;;5069786;28;20089;-68
2021/07/15 10:29:36;;;;;;;18.10;9.68;;;18.80;99.90;;;;;;5066907;28;20040;-68
2021/07/15 10:32:03;;;;;;;15.55;8.82;;;18.80;99.90;;;;;;5069480;28;20123;-68
2021/07/15 10:34:31;;;;;;;20.95;10.57;;;18.90;99.90;;;;;;5070268;28;20446;-69
2021/07/15 10:37:00;;;;;;;18.27;9.90;;;18.90;99.90;;;;;;5069542;28;20062;-68
2021/07/15 10:39:28;;;;;;;18.85;10.65;;;19.00;99.90;;;;;;5064946;28;20090;-70
2021/07/15 10:41:56;;;;;;;25.73;10.38;;;19.00;99.90;;;;;;5068072;28;20043;-69
2021/07/15 10:44:25;;;;;;;22.95;11.18;;;19.00;99.90;;;;;;5069680;28;20052;-69
2021/07/15 10:46:52;;;;;;;25.27;10.35;;;19.00;99.90;;;;;;5072185;28;20488;-69
2021/07/15 10:49:19;;;;;;;27.63;11.40;;;19.10;99.90;;;;;;5064488;28;20040;-69
2021/07/15 10:51:47;;;;;;;26.63;11.52;;;19.10;99.90;;;;;;5072020;28;20071;-69
2021/07/15 10:54:15;;;;;;;28.75;11.75;;;19.20;99.90;;;;;;5069594;28;20040;-69
2021/07/15 10:56:45;;;;;;;23.83;11.35;;;19.30;99.90;;;;;;5070522;28;20581;-69
2021/07/15 10:59:26;;;;;;;27.48;10.75;;;19.40;99.90;;;;;;5066769;28;20040;-69
2021/07/15 11:01:53;;;;;;;25.50;11.55;;;19.40;99.90;;;;;;5072142;28;20792;-69
2021/07/15 11:04:32;;;;;;;27.33;10.35;;;19.50;99.90;;;;;;5069425;28;20061;-68
2021/07/15 11:07:01;;;;;;;26.83;10.68;;;19.50;99.90;;;;;;5068009;28;20722;-68
2021/07/15 11:09:32;;;;;;;25.10;10.43;;;19.40;99.90;;;;;;5066418;28;20501;-68
2021/07/15 11:12:00;;;;;;;22.05;10.07;;;19.40;99.90;;;;;;5068436;28;20046;-69
2021/07/15 11:14:43;;;;;;;21.13;10.57;;;19.40;99.90;;;;;;5073609;28;20087;-68
2021/07/15 11:17:29;;;;;;;25.75;10.85;;;19.40;99.90;;;;;;5072916;28;20570;-68
2021/07/15 11:20:08;;;;;;;23.33;9.77;;;19.40;99.90;;;;;;5067966;28;20039;-67
2021/07/15 11:22:51;;;;;;;16.73;8.55;;;19.40;99.90;;;;;;5075156;28;20051;-68
2021/07/15 11:25:18;;;;;;;18.55;9.35;;;19.40;99.90;;;;;;5072340;28;20056;-67
2021/07/15 11:27:52;;;;;;;23.45;10.85;;;19.40;99.90;;;;;;5073254;28;20039;-67
2021/07/15 11:30:35;;;;;;;20.65;9.73;;;19.40;99.90;;;;;;5068816;28;20047;-69
2021/07/15 11:33:19;;;;;;;21.45;9.45;;;19.30;99.90;;;;;;5073281;28;20048;-67
2021/07/15 11:36:07;;;;;;;23.35;9.50;;;19.30;99.90;;;;;;5074940;28;20046;-67
2021/07/15 11:38:34;;;;;;;22.52;10.27;;;19.30;99.90;;;;;;5067085;28;20043;-67
2021/07/15 11:41:05;;;;;;;18.17;9.85;;;19.30;99.90;;;;;;5072125;28;20048;-68
2021/07/15 11:43:35;;;;;;;28.35;11.60;;;19.20;99.90;;;;;;5073482;28;20044;-69
2021/07/15 11:46:03;;;;;;;24.73;11.30;;;19.20;99.90;;;;;;5074628;28;20123;-67
2021/07/15 11:49:02;;;;;;;23.20;11.63;;;19.20;99.90;;;;;;5069421;28;20497;-67
2021/07/15 11:51:48;;;;;;;24.73;10.88;;;19.30;99.90;;;;;;5072656;28;20150;-67
2021/07/15 11:54:29;;;;;;;22.48;11.50;;;19.30;99.90;;;;;;5072266;28;20439;-67
2021/07/15 11:56:54;;;;;;;24.48;11.10;;;19.30;99.90;;;;;;5069998;28;20036;-69
2021/07/15 11:59:34;;;;;;;24.83;10.77;;;19.30;99.90;;;;;;5068469;28;20044;-69
2021/07/15 12:02:17;;;;;;;24.00;11.77;;;19.30;99.90;;;;;;5070085;28;20120;-69
2021/07/15 12:05:09;;;;;;;24.50;11.27;;;19.40;99.90;;;;;;5074879;28;20418;-69
2021/07/15 12:07:37;;;;;;;21.52;11.45;;;19.40;99.90;;;;;;5074492;28;20044;-69
2021/07/15 12:10:06;;;;;;;22.23;10.70;;;19.40;99.90;;;;;;5052938;28;20481;-69
2021/07/15 12:12:32;;;;;;;20.67;10.25;;;19.30;99.90;;;;;;5054891;28;20051;-68
2021/07/15 12:14:58;;;;;;;21.02;11.15;;;19.30;99.90;;;;;;5074464;28;21372;-68
2021/07/15 12:17:30;;;;;;;16.85;9.35;;;19.30;99.90;;;;;;5070770;28;20079;-69
2021/07/15 12:19:57;;;;;;;26.30;10.40;;;19.20;99.90;;;;;;5077243;28;20054;-68
2021/07/15 12:22:24;;;;;;;18.30;9.90;;;19.20;99.90;;;;;;5070731;28;20072;-68
2021/07/15 12:25:12;;;;;;;18.73;10.30;;;19.20;99.90;;;;;;5074097;28;20110;-68
2021/07/15 12:27:43;;;;;;;18.92;10.38;;;19.20;99.90;;;;;;5070004;28;20102;-68
2021/07/15 12:30:10;;;;;;;22.58;10.85;;;19.20;99.90;;;;;;5071504;28;20115;-68
2021/07/15 12:32:38;;;;;;;17.05;8.65;;;19.20;99.90;;;;;;5070206;28;20040;-68
2021/07/15 12:35:14;;;;;;;20.98;10.13;;;19.10;99.90;;;;;;5072474;28;20083;-69
2021/07/15 12:37:40;;;;;;;22.42;10.18;;;19.10;99.90;;;;;;5071754;28;20051;-68
2021/07/15 12:40:08;;;;;;;19.50;9.40;;;19.10;99.90;;;;;;5071240;28;20044;-69